sensor_id;sensor_type;location;lat;lon;timestamp;P1;durP1;ratioP1;P2;durP2;ratioP2
79570;SDS011;69034;49.444;7.758;2023-08-20T00:02:09;8.50;;;5.22;;
79570;SDS011;69034;49.444;7.758;2023-08-20T00:06:11;6.20;;;4.40;;
79570;SDS011;69034;49.444;7.758;2023-08-20T00:10:12;8.07;;;4.97;;
79570;SDS011;69034;49.444;7.758;2023-08-20T00:14:16;11.43;;;4.68;;
79570;SDS011;69034;49.444;7.758;2023-08-20T00:18:17;8.20;;;4.97;;
79570;SDS011;69034;49.444;7.758;2023-08-20T00:22:18;9.95;;;4.65;;
79570;SDS011;69034;49.444;7.758;2023-08-20T00:26:20;7.22;;;4.38;;
79570;SDS011;69034;49.444;7.758;2023-08-20T00:30:21;7.93;;;4.18;;
79570;SDS011;69034;49.444;7.758;2023-08-20T00:34:22;11.73;;;4.95;;
79570;SDS011;69034;49.444;7.758;2023-08-20T00:38:22;9.73;;;4.70;;
79570;SDS011;69034;49.444;7.758;2023-08-20T00:42:23;7.35;;;4.50;;
79570;SDS011;69034;49.444;7.758;2023-08-20T00:46:28;7.07;;;4.25;;
79570;SDS011;69034;49.444;7.758;2023-08-20T00:50:29;8.00;;;4.75;;
79570;SDS011;69034;49.444;7.758;2023-08-20T00:54:30;7.22;;;5.03;;
79570;SDS011;69034;49.444;7.758;2023-08-20T00:58:32;8.35;;;4.72;;
79570;SDS011;69034;49.444;7.758;2023-08-20T01:02:33;8.05;;;4.50;;
79570;SDS011;69034;49.444;7.758;2023-08-20T01:06:55;10.05;;;4.97;;
79570;SDS011;69034;49.444;7.758;2023-08-20T01:11:03;9.27;;;4.50;;
79570;SDS011;69034;49.444;7.758;2023-08-20T01:15:11;6.65;;;4.88;;
79570;SDS011;69034;49.444;7.758;2023-08-20T01:19:16;7.53;;;4.88;;
79570;SDS011;69034;49.444;7.758;2023-08-20T01:27:48;10.05;;;4.47;;
79570;SDS011;69034;49.444;7.758;2023-08-20T01:31:57;7.55;;;4.53;;
79570;SDS011;69034;49.444;7.758;2023-08-20T01:35:58;7.82;;;4.35;;
79570;SDS011;69034;49.444;7.758;2023-08-20T01:39:59;9.00;;;5.05;;
79570;SDS011;69034;49.444;7.758;2023-08-20T01:44:00;7.10;;;4.32;;
79570;SDS011;69034;49.444;7.758;2023-08-20T01:48:01;8.07;;;4.55;;
79570;SDS011;69034;49.444;7.758;2023-08-20T01:52:03;8.90;;;5.07;;
79570;SDS011;69034;49.444;7.758;2023-08-20T01:56:04;6.32;;;4.00;;
79570;SDS011;69034;49.444;7.758;2023-08-20T02:00:11;6.82;;;4.78;;
79570;SDS011;69034;49.444;7.758;2023-08-20T02:04:12;8.88;;;4.43;;
79570;SDS011;69034;49.444;7.758;2023-08-20T02:08:13;8.98;;;4.57;;
79570;SDS011;69034;49.444;7.758;2023-08-20T02:12:14;10.27;;;5.50;;
79570;SDS011;69034;49.444;7.758;2023-08-20T02:16:14;8.18;;;4.68;;
79570;SDS011;69034;49.444;7.758;2023-08-20T02:20:16;6.80;;;5.00;;
79570;SDS011;69034;49.444;7.758;2023-08-20T02:24:17;7.82;;;4.80;;
79570;SDS011;69034;49.444;7.758;2023-08-20T02:28:18;8.75;;;4.57;;
79570;SDS011;69034;49.444;7.758;2023-08-20T02:32:18;9.65;;;4.45;;
79570;SDS011;69034;49.444;7.758;2023-08-20T02:36:19;10.30;;;4.50;;
79570;SDS011;69034;49.444;7.758;2023-08-20T02:40:20;9.32;;;4.82;;
79570;SDS011;69034;49.444;7.758;2023-08-20T02:44:20;7.43;;;4.70;;
79570;SDS011;69034;49.444;7.758;2023-08-20T02:48:21;9.00;;;5.13;;
79570;SDS011;69034;49.444;7.758;2023-08-20T02:52:27;8.55;;;3.97;;
79570;SDS011;69034;49.444;7.758;2023-08-20T02:56:27;7.20;;;4.60;;
79570;SDS011;69034;49.444;7.758;2023-08-20T03:00:28;6.88;;;4.07;;
79570;SDS011;69034;49.444;7.758;2023-08-20T03:04:29;8.82;;;4.85;;
79570;SDS011;69034;49.444;7.758;2023-08-20T03:08:30;8.77;;;4.40;;
79570;SDS011;69034;49.444;7.758;2023-08-20T03:12:30;8.65;;;5.32;;
79570;SDS011;69034;49.444;7.758;2023-08-20T03:16:31;8.18;;;5.18;;
79570;SDS011;69034;49.444;7.758;2023-08-20T03:20:31;7.55;;;4.82;;
79570;SDS011;69034;49.444;7.758;2023-08-20T03:24:32;7.15;;;4.40;;
79570;SDS011;69034;49.444;7.758;2023-08-20T03:28:33;7.93;;;4.43;;
79570;SDS011;69034;49.444;7.758;2023-08-20T03:32:33;8.13;;;5.03;;
79570;SDS011;69034;49.444;7.758;2023-08-20T03:36:34;7.15;;;4.30;;
79570;SDS011;69034;49.444;7.758;2023-08-20T03:40:34;8.75;;;5.20;;
79570;SDS011;69034;49.444;7.758;2023-08-20T03:44:35;8.02;;;5.25;;
79570;SDS011;69034;49.444;7.758;2023-08-20T03:48:36;8.27;;;5.22;;
79570;SDS011;69034;49.444;7.758;2023-08-20T03:52:36;10.45;;;5.25;;
79570;SDS011;69034;49.444;7.758;2023-08-20T03:56:37;8.45;;;5.30;;
79570;SDS011;69034;49.444;7.758;2023-08-20T04:00:37;9.65;;;4.72;;
79570;SDS011;69034;49.444;7.758;2023-08-20T04:04:38;8.70;;;4.80;;
79570;SDS011;69034;49.444;7.758;2023-08-20T04:08:39;6.57;;;4.40;;
79570;SDS011;69034;49.444;7.758;2023-08-20T04:12:39;7.28;;;5.38;;
79570;SDS011;69034;49.444;7.758;2023-08-20T04:16:40;10.40;;;4.60;;
79570;SDS011;69034;49.444;7.758;2023-08-20T04:20:41;10.02;;;4.68;;
79570;SDS011;69034;49.444;7.758;2023-08-20T04:24:42;9.13;;;4.80;;
79570;SDS011;69034;49.444;7.758;2023-08-20T04:28:42;13.52;;;4.50;;
79570;SDS011;69034;49.444;7.758;2023-08-20T04:32:43;5.88;;;4.00;;
79570;SDS011;69034;49.444;7.758;2023-08-20T04:36:44;6.78;;;4.05;;
79570;SDS011;69034;49.444;7.758;2023-08-20T04:40:48;8.65;;;5.07;;
79570;SDS011;69034;49.444;7.758;2023-08-20T04:44:49;6.80;;;4.07;;
79570;SDS011;69034;49.444;7.758;2023-08-20T04:48:49;6.20;;;4.00;;
79570;SDS011;69034;49.444;7.758;2023-08-20T04:52:50;7.78;;;4.47;;
79570;SDS011;69034;49.444;7.758;2023-08-20T04:56:50;7.70;;;4.30;;
79570;SDS011;69034;49.444;7.758;2023-08-20T05:00:51;7.63;;;4.53;;
79570;SDS011;69034;49.444;7.758;2023-08-20T05:04:52;6.50;;;4.50;;
79570;SDS011;69034;49.444;7.758;2023-08-20T05:08:52;7.18;;;4.28;;
79570;SDS011;69034;49.444;7.758;2023-08-20T05:12:53;6.97;;;4.28;;
79570;SDS011;69034;49.444;7.758;2023-08-20T05:16:53;6.55;;;4.07;;
79570;SDS011;69034;49.444;7.758;2023-08-20T05:20:54;5.88;;;4.15;;
79570;SDS011;69034;49.444;7.758;2023-08-20T05:24:55;7.85;;;4.30;;
79570;SDS011;69034;49.444;7.758;2023-08-20T05:28:55;6.50;;;4.15;;
79570;SDS011;69034;49.444;7.758;2023-08-20T05:32:56;7.25;;;3.60;;
79570;SDS011;69034;49.444;7.758;2023-08-20T05:36:56;5.38;;;3.83;;
79570;SDS011;69034;49.444;7.758;2023-08-20T05:40:57;5.50;;;3.83;;
79570;SDS011;69034;49.444;7.758;2023-08-20T05:44:58;6.35;;;3.90;;
79570;SDS011;69034;49.444;7.758;2023-08-20T05:48:58;8.18;;;4.70;;
79570;SDS011;69034;49.444;7.758;2023-08-20T05:53:00;6.70;;;3.90;;
79570;SDS011;69034;49.444;7.758;2023-08-20T05:57:01;6.30;;;4.28;;
79570;SDS011;69034;49.444;7.758;2023-08-20T06:01:02;5.88;;;4.40;;
79570;SDS011;69034;49.444;7.758;2023-08-20T06:05:03;6.30;;;4.38;;
79570;SDS011;69034;49.444;7.758;2023-08-20T06:09:04;6.57;;;3.80;;
79570;SDS011;69034;49.444;7.758;2023-08-20T06:13:05;6.57;;;4.55;;
79570;SDS011;69034;49.444;7.758;2023-08-20T06:17:06;5.45;;;3.75;;
79570;SDS011;69034;49.444;7.758;2023-08-20T06:21:07;11.15;;;4.47;;
79570;SDS011;69034;49.444;7.758;2023-08-20T06:25:07;6.88;;;3.80;;
79570;SDS011;69034;49.444;7.758;2023-08-20T06:29:08;6.30;;;4.30;;
79570;SDS011;69034;49.444;7.758;2023-08-20T06:33:09;6.70;;;4.22;;
79570;SDS011;69034;49.444;7.758;2023-08-20T06:37:09;7.07;;;4.57;;
79570;SDS011;69034;49.444;7.758;2023-08-20T06:41:10;6.85;;;4.18;;
79570;SDS011;69034;49.444;7.758;2023-08-20T06:45:10;6.95;;;4.22;;
79570;SDS011;69034;49.444;7.758;2023-08-20T06:49:11;7.90;;;4.00;;
79570;SDS011;69034;49.444;7.758;2023-08-20T06:53:12;7.72;;;4.30;;
79570;SDS011;69034;49.444;7.758;2023-08-20T06:57:12;9.98;;;4.40;;
79570;SDS011;69034;49.444;7.758;2023-08-20T07:01:13;8.30;;;4.80;;
79570;SDS011;69034;49.444;7.758;2023-08-20T07:05:14;6.63;;;4.43;;
79570;SDS011;69034;49.444;7.758;2023-08-20T07:09:15;9.48;;;4.78;;
79570;SDS011;69034;49.444;7.758;2023-08-20T07:13:16;8.35;;;4.65;;
79570;SDS011;69034;49.444;7.758;2023-08-20T07:17:18;8.02;;;4.57;;
79570;SDS011;69034;49.444;7.758;2023-08-20T07:21:18;7.68;;;4.57;;
79570;SDS011;69034;49.444;7.758;2023-08-20T07:25:19;6.65;;;3.97;;
79570;SDS011;69034;49.444;7.758;2023-08-20T07:29:20;6.95;;;4.78;;
79570;SDS011;69034;49.444;7.758;2023-08-20T07:33:23;6.47;;;4.68;;
79570;SDS011;69034;49.444;7.758;2023-08-20T07:37:24;8.55;;;4.15;;
79570;SDS011;69034;49.444;7.758;2023-08-20T07:41:24;8.63;;;4.20;;
79570;SDS011;69034;49.444;7.758;2023-08-20T07:45:25;5.57;;;3.47;;
79570;SDS011;69034;49.444;7.758;2023-08-20T07:49:26;11.60;;;3.95;;
79570;SDS011;69034;49.444;7.758;2023-08-20T07:53:26;7.28;;;3.88;;
79570;SDS011;69034;49.444;7.758;2023-08-20T07:57:27;6.88;;;4.40;;
79570;SDS011;69034;49.444;7.758;2023-08-20T08:01:27;6.43;;;4.35;;
79570;SDS011;69034;49.444;7.758;2023-08-20T08:05:28;6.57;;;4.20;;
79570;SDS011;69034;49.444;7.758;2023-08-20T08:09:29;6.10;;;4.22;;
79570;SDS011;69034;49.444;7.758;2023-08-20T08:13:31;6.75;;;3.92;;
79570;SDS011;69034;49.444;7.758;2023-08-20T08:17:32;6.78;;;4.20;;
79570;SDS011;69034;49.444;7.758;2023-08-20T08:21:33;5.25;;;4.05;;
79570;SDS011;69034;49.444;7.758;2023-08-20T08:25:33;5.43;;;3.88;;
79570;SDS011;69034;49.444;7.758;2023-08-20T08:29:34;8.38;;;4.18;;
79570;SDS011;69034;49.444;7.758;2023-08-20T08:33:35;7.82;;;3.80;;
79570;SDS011;69034;49.444;7.758;2023-08-20T08:37:35;6.15;;;4.38;;
79570;SDS011;69034;49.444;7.758;2023-08-20T08:41:38;5.85;;;4.20;;
79570;SDS011;69034;49.444;7.758;2023-08-20T08:45:43;6.68;;;3.70;;
79570;SDS011;69034;49.444;7.758;2023-08-20T08:49:47;7.75;;;3.97;;
79570;SDS011;69034;49.444;7.758;2023-08-20T08:53:50;5.72;;;4.00;;
79570;SDS011;69034;49.444;7.758;2023-08-20T08:57:51;6.57;;;4.15;;
79570;SDS011;69034;49.444;7.758;2023-08-20T09:01:52;7.47;;;4.88;;
79570;SDS011;69034;49.444;7.758;2023-08-20T09:05:58;6.70;;;4.20;;
79570;SDS011;69034;49.444;7.758;2023-08-20T09:10:03;8.43;;;3.75;;
79570;SDS011;69034;49.444;7.758;2023-08-20T09:14:03;6.07;;;3.15;;
79570;SDS011;69034;49.444;7.758;2023-08-20T09:18:04;7.13;;;4.07;;
79570;SDS011;69034;49.444;7.758;2023-08-20T09:22:09;8.88;;;4.70;;
79570;SDS011;69034;49.444;7.758;2023-08-20T09:26:11;8.13;;;4.03;;
79570;SDS011;69034;49.444;7.758;2023-08-20T09:30:17;6.38;;;3.92;;
79570;SDS011;69034;49.444;7.758;2023-08-20T09:34:20;6.50;;;4.18;;
79570;SDS011;69034;49.444;7.758;2023-08-20T09:38:21;6.13;;;4.25;;
79570;SDS011;69034;49.444;7.758;2023-08-20T09:42:23;8.18;;;3.80;;
79570;SDS011;69034;49.444;7.758;2023-08-20T09:46:31;5.95;;;3.80;;
79570;SDS011;69034;49.444;7.758;2023-08-20T09:50:33;8.50;;;4.10;;
79570;SDS011;69034;49.444;7.758;2023-08-20T09:54:45;6.45;;;3.60;;
79570;SDS011;69034;49.444;7.758;2023-08-20T09:59:08;6.13;;;3.30;;
79570;SDS011;69034;49.444;7.758;2023-08-20T10:03:10;4.30;;;2.80;;
79570;SDS011;69034;49.444;7.758;2023-08-20T10:07:11;8.52;;;3.20;;
79570;SDS011;69034;49.444;7.758;2023-08-20T10:11:12;6.72;;;3.05;;
79570;SDS011;69034;49.444;7.758;2023-08-20T10:15:13;5.32;;;2.78;;
79570;SDS011;69034;49.444;7.758;2023-08-20T10:19:15;8.00;;;3.00;;
79570;SDS011;69034;49.444;7.758;2023-08-20T10:23:21;6.47;;;2.97;;
79570;SDS011;69034;49.444;7.758;2023-08-20T10:27:28;5.22;;;3.10;;
79570;SDS011;69034;49.444;7.758;2023-08-20T10:31:32;4.28;;;2.70;;
79570;SDS011;69034;49.444;7.758;2023-08-20T10:39:39;7.85;;;3.00;;
79570;SDS011;69034;49.444;7.758;2023-08-20T10:43:46;5.20;;;2.55;;
79570;SDS011;69034;49.444;7.758;2023-08-20T10:47:48;5.10;;;2.05;;
79570;SDS011;69034;49.444;7.758;2023-08-20T10:51:49;6.80;;;2.33;;
79570;SDS011;69034;49.444;7.758;2023-08-20T10:55:50;5.88;;;2.97;;
79570;SDS011;69034;49.444;7.758;2023-08-20T11:00:02;4.22;;;2.70;;
79570;SDS011;69034;49.444;7.758;2023-08-20T11:04:18;5.35;;;2.75;;
79570;SDS011;69034;49.444;7.758;2023-08-20T11:08:20;6.20;;;2.75;;
79570;SDS011;69034;49.444;7.758;2023-08-20T11:12:21;5.18;;;3.20;;
79570;SDS011;69034;49.444;7.758;2023-08-20T11:16:22;5.68;;;2.63;;
79570;SDS011;69034;49.444;7.758;2023-08-20T11:20:23;8.10;;;3.17;;
79570;SDS011;69034;49.444;7.758;2023-08-20T11:24:23;4.63;;;3.15;;
79570;SDS011;69034;49.444;7.758;2023-08-20T11:28:28;5.03;;;2.70;;
79570;SDS011;69034;49.444;7.758;2023-08-20T11:32:30;6.75;;;2.83;;
79570;SDS011;69034;49.444;7.758;2023-08-20T11:36:31;6.88;;;3.13;;
79570;SDS011;69034;49.444;7.758;2023-08-20T11:40:32;7.93;;;2.83;;
79570;SDS011;69034;49.444;7.758;2023-08-20T11:44:41;6.07;;;2.90;;
79570;SDS011;69034;49.444;7.758;2023-08-20T11:53:07;4.93;;;2.75;;
79570;SDS011;69034;49.444;7.758;2023-08-20T11:57:09;3.88;;;2.47;;
79570;SDS011;69034;49.444;7.758;2023-08-20T12:01:10;4.97;;;2.78;;
79570;SDS011;69034;49.444;7.758;2023-08-20T12:05:18;5.97;;;3.20;;
79570;SDS011;69034;49.444;7.758;2023-08-20T12:09:22;5.72;;;3.00;;
79570;SDS011;69034;49.444;7.758;2023-08-20T12:13:24;6.60;;;2.70;;
79570;SDS011;69034;49.444;7.758;2023-08-20T12:17:25;7.97;;;2.42;;
79570;SDS011;69034;49.444;7.758;2023-08-20T12:21:27;4.32;;;2.78;;
79570;SDS011;69034;49.444;7.758;2023-08-20T12:25:29;5.63;;;2.92;;
79570;SDS011;69034;49.444;7.758;2023-08-20T12:29:32;3.95;;;2.50;;
79570;SDS011;69034;49.444;7.758;2023-08-20T12:33:32;5.45;;;2.30;;
79570;SDS011;69034;49.444;7.758;2023-08-20T12:37:33;4.90;;;2.80;;
79570;SDS011;69034;49.444;7.758;2023-08-20T12:41:34;6.43;;;3.15;;
79570;SDS011;69034;49.444;7.758;2023-08-20T12:45:38;5.07;;;2.80;;
79570;SDS011;69034;49.444;7.758;2023-08-20T12:49:39;7.47;;;2.67;;
79570;SDS011;69034;49.444;7.758;2023-08-20T12:53:39;4.60;;;2.33;;
79570;SDS011;69034;49.444;7.758;2023-08-20T12:57:51;4.40;;;2.88;;
79570;SDS011;69034;49.444;7.758;2023-08-20T13:01:54;7.13;;;2.95;;
79570;SDS011;69034;49.444;7.758;2023-08-20T13:05:54;3.83;;;2.72;;
79570;SDS011;69034;49.444;7.758;2023-08-20T13:09:58;5.13;;;3.28;;
79570;SDS011;69034;49.444;7.758;2023-08-20T13:14:00;6.25;;;3.60;;
79570;SDS011;69034;49.444;7.758;2023-08-20T13:18:06;6.10;;;3.67;;
79570;SDS011;69034;49.444;7.758;2023-08-20T13:22:07;4.82;;;3.17;;
79570;SDS011;69034;49.444;7.758;2023-08-20T13:26:08;4.97;;;2.80;;
79570;SDS011;69034;49.444;7.758;2023-08-20T13:30:10;4.53;;;2.75;;
79570;SDS011;69034;49.444;7.758;2023-08-20T13:34:13;5.78;;;3.45;;
79570;SDS011;69034;49.444;7.758;2023-08-20T13:38:13;5.00;;;3.22;;
79570;SDS011;69034;49.444;7.758;2023-08-20T13:42:14;4.32;;;2.65;;
79570;SDS011;69034;49.444;7.758;2023-08-20T13:46:16;4.05;;;2.53;;
79570;SDS011;69034;49.444;7.758;2023-08-20T13:50:16;4.35;;;2.65;;
79570;SDS011;69034;49.444;7.758;2023-08-20T13:54:18;5.13;;;3.20;;
79570;SDS011;69034;49.444;7.758;2023-08-20T13:58:18;4.20;;;3.05;;
79570;SDS011;69034;49.444;7.758;2023-08-20T14:02:19;4.97;;;3.00;;
79570;SDS011;69034;49.444;7.758;2023-08-20T14:06:20;4.78;;;3.03;;
79570;SDS011;69034;49.444;7.758;2023-08-20T14:10:20;5.10;;;3.00;;
79570;SDS011;69034;49.444;7.758;2023-08-20T14:14:21;5.82;;;2.35;;
79570;SDS011;69034;49.444;7.758;2023-08-20T14:18:23;6.28;;;2.53;;
79570;SDS011;69034;49.444;7.758;2023-08-20T14:22:24;5.25;;;3.15;;
79570;SDS011;69034;49.444;7.758;2023-08-20T14:26:25;6.65;;;3.40;;
79570;SDS011;69034;49.444;7.758;2023-08-20T14:30:26;4.00;;;2.80;;
79570;SDS011;69034;49.444;7.758;2023-08-20T14:34:27;5.95;;;2.40;;
79570;SDS011;69034;49.444;7.758;2023-08-20T14:38:31;5.75;;;3.00;;
79570;SDS011;69034;49.444;7.758;2023-08-20T14:42:32;4.75;;;2.45;;
79570;SDS011;69034;49.444;7.758;2023-08-20T14:46:34;8.55;;;3.45;;
79570;SDS011;69034;49.444;7.758;2023-08-20T14:50:34;5.53;;;3.10;;
79570;SDS011;69034;49.444;7.758;2023-08-20T14:54:36;4.72;;;2.50;;
79570;SDS011;69034;49.444;7.758;2023-08-20T14:58:37;7.40;;;3.13;;
79570;SDS011;69034;49.444;7.758;2023-08-20T15:02:38;6.35;;;3.10;;
79570;SDS011;69034;49.444;7.758;2023-08-20T15:06:38;4.82;;;2.97;;
79570;SDS011;69034;49.444;7.758;2023-08-20T15:10:39;3.70;;;2.60;;
79570;SDS011;69034;49.444;7.758;2023-08-20T15:14:40;4.22;;;2.70;;
79570;SDS011;69034;49.444;7.758;2023-08-20T15:18:40;4.82;;;3.03;;
79570;SDS011;69034;49.444;7.758;2023-08-20T15:22:41;6.18;;;2.60;;
79570;SDS011;69034;49.444;7.758;2023-08-20T15:26:42;4.53;;;2.78;;
79570;SDS011;69034;49.444;7.758;2023-08-20T15:30:42;3.90;;;2.80;;
79570;SDS011;69034;49.444;7.758;2023-08-20T15:34:43;5.18;;;2.70;;
79570;SDS011;69034;49.444;7.758;2023-08-20T15:38:47;6.65;;;2.97;;
79570;SDS011;69034;49.444;7.758;2023-08-20T15:42:47;6.85;;;2.80;;
79570;SDS011;69034;49.444;7.758;2023-08-20T15:46:48;7.22;;;3.10;;
79570;SDS011;69034;49.444;7.758;2023-08-20T15:50:49;6.15;;;3.08;;
79570;SDS011;69034;49.444;7.758;2023-08-20T15:54:49;4.70;;;2.83;;
79570;SDS011;69034;49.444;7.758;2023-08-20T15:58:50;9.75;;;2.72;;
79570;SDS011;69034;49.444;7.758;2023-08-20T16:02:51;8.05;;;2.83;;
79570;SDS011;69034;49.444;7.758;2023-08-20T16:06:51;6.95;;;2.80;;
79570;SDS011;69034;49.444;7.758;2023-08-20T16:10:52;6.00;;;2.53;;
79570;SDS011;69034;49.444;7.758;2023-08-20T16:14:53;4.68;;;2.55;;
79570;SDS011;69034;49.444;7.758;2023-08-20T16:18:53;5.85;;;2.80;;
79570;SDS011;69034;49.444;7.758;2023-08-20T16:22:54;8.25;;;2.70;;
79570;SDS011;69034;49.444;7.758;2023-08-20T16:26:55;5.45;;;2.95;;
79570;SDS011;69034;49.444;7.758;2023-08-20T16:30:55;4.97;;;2.33;;
79570;SDS011;69034;49.444;7.758;2023-08-20T16:34:58;8.25;;;2.40;;
79570;SDS011;69034;49.444;7.758;2023-08-20T16:38:58;5.63;;;2.13;;
79570;SDS011;69034;49.444;7.758;2023-08-20T16:42:59;5.65;;;2.50;;
79570;SDS011;69034;49.444;7.758;2023-08-20T16:47:02;6.57;;;2.20;;
79570;SDS011;69034;49.444;7.758;2023-08-20T16:51:03;5.18;;;2.72;;
79570;SDS011;69034;49.444;7.758;2023-08-20T16:55:05;4.65;;;2.25;;
79570;SDS011;69034;49.444;7.758;2023-08-20T16:59:05;6.22;;;2.33;;
79570;SDS011;69034;49.444;7.758;2023-08-20T17:03:06;5.95;;;2.65;;
79570;SDS011;69034;49.444;7.758;2023-08-20T17:07:07;6.93;;;2.67;;
79570;SDS011;69034;49.444;7.758;2023-08-20T17:11:08;5.53;;;2.83;;
79570;SDS011;69034;49.444;7.758;2023-08-20T17:15:11;5.03;;;2.63;;
79570;SDS011;69034;49.444;7.758;2023-08-20T17:19:12;6.05;;;2.40;;
79570;SDS011;69034;49.444;7.758;2023-08-20T17:23:12;5.72;;;2.45;;
79570;SDS011;69034;49.444;7.758;2023-08-20T17:27:15;5.63;;;2.20;;
79570;SDS011;69034;49.444;7.758;2023-08-20T17:31:16;6.85;;;2.10;;
79570;SDS011;69034;49.444;7.758;2023-08-20T17:35:16;6.10;;;2.30;;
79570;SDS011;69034;49.444;7.758;2023-08-20T17:39:17;5.20;;;2.70;;
79570;SDS011;69034;49.444;7.758;2023-08-20T17:43:19;6.53;;;3.10;;
79570;SDS011;69034;49.444;7.758;2023-08-20T17:47:20;5.25;;;3.20;;
79570;SDS011;69034;49.444;7.758;2023-08-20T17:51:21;5.55;;;3.00;;
79570;SDS011;69034;49.444;7.758;2023-08-20T17:55:21;4.78;;;2.38;;
79570;SDS011;69034;49.444;7.758;2023-08-20T17:59:22;6.80;;;2.65;;
79570;SDS011;69034;49.444;7.758;2023-08-20T18:03:23;7.38;;;2.53;;
79570;SDS011;69034;49.444;7.758;2023-08-20T18:07:24;10.73;;;4.28;;
79570;SDS011;69034;49.444;7.758;2023-08-20T18:11:25;7.32;;;3.17;;
79570;SDS011;69034;49.444;7.758;2023-08-20T18:15:26;7.28;;;2.83;;
79570;SDS011;69034;49.444;7.758;2023-08-20T18:19:26;9.73;;;2.92;;
79570;SDS011;69034;49.444;7.758;2023-08-20T18:23:28;5.35;;;2.55;;
79570;SDS011;69034;49.444;7.758;2023-08-20T18:27:28;10.52;;;3.17;;
79570;SDS011;69034;49.444;7.758;2023-08-20T18:31:29;8.88;;;3.30;;
79570;SDS011;69034;49.444;7.758;2023-08-20T18:35:30;6.22;;;2.85;;
79570;SDS011;69034;49.444;7.758;2023-08-20T18:39:31;5.13;;;2.70;;
79570;SDS011;69034;49.444;7.758;2023-08-20T18:43:31;6.07;;;3.05;;
79570;SDS011;69034;49.444;7.758;2023-08-20T18:47:33;5.85;;;3.38;;
79570;SDS011;69034;49.444;7.758;2023-08-20T18:51:33;6.97;;;3.35;;
79570;SDS011;69034;49.444;7.758;2023-08-20T18:55:34;5.97;;;3.15;;
79570;SDS011;69034;49.444;7.758;2023-08-20T18:59:36;5.18;;;3.10;;
79570;SDS011;69034;49.444;7.758;2023-08-20T19:03:37;8.43;;;3.13;;
79570;SDS011;69034;49.444;7.758;2023-08-20T19:07:37;5.72;;;2.75;;
79570;SDS011;69034;49.444;7.758;2023-08-20T19:11:43;8.07;;;2.67;;
79570;SDS011;69034;49.444;7.758;2023-08-20T19:15:48;5.47;;;2.70;;
79570;SDS011;69034;49.444;7.758;2023-08-20T19:19:49;6.65;;;3.00;;
79570;SDS011;69034;49.444;7.758;2023-08-20T19:23:50;7.80;;;2.88;;
79570;SDS011;69034;49.444;7.758;2023-08-20T19:27:52;6.25;;;3.47;;
79570;SDS011;69034;49.444;7.758;2023-08-20T19:31:53;6.43;;;3.53;;
79570;SDS011;69034;49.444;7.758;2023-08-20T19:35:53;6.97;;;3.22;;
79570;SDS011;69034;49.444;7.758;2023-08-20T19:39:54;4.45;;;2.95;;
79570;SDS011;69034;49.444;7.758;2023-08-20T19:43:55;6.65;;;2.92;;
79570;SDS011;69034;49.444;7.758;2023-08-20T19:47:56;6.40;;;3.17;;
79570;SDS011;69034;49.444;7.758;2023-08-20T19:51:56;9.25;;;3.90;;
79570;SDS011;69034;49.444;7.758;2023-08-20T19:55:57;7.32;;;3.50;;
79570;SDS011;69034;49.444;7.758;2023-08-20T19:59:58;8.93;;;3.65;;
79570;SDS011;69034;49.444;7.758;2023-08-20T20:03:58;6.05;;;3.55;;
79570;SDS011;69034;49.444;7.758;2023-08-20T20:07:59;7.90;;;3.50;;
79570;SDS011;69034;49.444;7.758;2023-08-20T20:11:59;7.75;;;3.42;;
79570;SDS011;69034;49.444;7.758;2023-08-20T20:16:00;6.18;;;3.60;;
79570;SDS011;69034;49.444;7.758;2023-08-20T20:20:01;8.43;;;3.90;;
79570;SDS011;69034;49.444;7.758;2023-08-20T20:24:10;9.50;;;4.15;;
79570;SDS011;69034;49.444;7.758;2023-08-20T20:28:11;7.80;;;3.35;;
79570;SDS011;69034;49.444;7.758;2023-08-20T20:32:13;5.93;;;3.63;;
79570;SDS011;69034;49.444;7.758;2023-08-20T20:36:14;7.35;;;3.40;;
79570;SDS011;69034;49.444;7.758;2023-08-20T20:40:15;9.73;;;3.53;;
79570;SDS011;69034;49.444;7.758;2023-08-20T20:44:16;9.40;;;3.25;;
79570;SDS011;69034;49.444;7.758;2023-08-20T20:48:16;5.78;;;3.05;;
79570;SDS011;69034;49.444;7.758;2023-08-20T20:52:17;7.18;;;3.72;;
79570;SDS011;69034;49.444;7.758;2023-08-20T20:56:17;6.93;;;3.72;;
79570;SDS011;69034;49.444;7.758;2023-08-20T21:00:18;5.30;;;3.22;;
79570;SDS011;69034;49.444;7.758;2023-08-20T21:04:19;8.10;;;3.05;;
79570;SDS011;69034;49.444;7.758;2023-08-20T21:08:19;7.18;;;3.50;;
79570;SDS011;69034;49.444;7.758;2023-08-20T21:12:20;5.90;;;3.42;;
79570;SDS011;69034;49.444;7.758;2023-08-20T21:16:21;9.40;;;4.05;;
79570;SDS011;69034;49.444;7.758;2023-08-20T21:20:21;5.95;;;3.88;;
79570;SDS011;69034;49.444;7.758;2023-08-20T21:24:22;8.63;;;3.63;;
79570;SDS011;69034;49.444;7.758;2023-08-20T21:28:22;8.70;;;3.00;;
79570;SDS011;69034;49.444;7.758;2023-08-20T21:32:23;9.13;;;3.58;;
79570;SDS011;69034;49.444;7.758;2023-08-20T21:36:24;8.00;;;4.00;;
79570;SDS011;69034;49.444;7.758;2023-08-20T21:40:24;6.70;;;3.97;;
79570;SDS011;69034;49.444;7.758;2023-08-20T21:44:25;8.18;;;3.50;;
79570;SDS011;69034;49.444;7.758;2023-08-20T21:48:27;6.63;;;3.65;;
79570;SDS011;69034;49.444;7.758;2023-08-20T21:52:28;6.60;;;3.30;;
79570;SDS011;69034;49.444;7.758;2023-08-20T21:56:29;6.20;;;3.22;;
79570;SDS011;69034;49.444;7.758;2023-08-20T22:00:30;7.40;;;4.15;;
79570;SDS011;69034;49.444;7.758;2023-08-20T22:04:31;5.43;;;3.63;;
79570;SDS011;69034;49.444;7.758;2023-08-20T22:08:32;6.65;;;3.92;;
79570;SDS011;69034;49.444;7.758;2023-08-20T22:12:33;8.05;;;4.00;;
79570;SDS011;69034;49.444;7.758;2023-08-20T22:16:34;6.47;;;3.47;;
79570;SDS011;69034;49.444;7.758;2023-08-20T22:20:34;8.48;;;4.10;;
79570;SDS011;69034;49.444;7.758;2023-08-20T22:24:35;8.30;;;3.83;;
79570;SDS011;69034;49.444;7.758;2023-08-20T22:28:35;7.95;;;3.60;;
79570;SDS011;69034;49.444;7.758;2023-08-20T22:32:36;8.13;;;3.67;;
79570;SDS011;69034;49.444;7.758;2023-08-20T22:36:37;6.40;;;3.78;;
79570;SDS011;69034;49.444;7.758;2023-08-20T22:40:38;6.90;;;4.20;;
79570;SDS011;69034;49.444;7.758;2023-08-20T22:44:40;8.02;;;3.83;;
79570;SDS011;69034;49.444;7.758;2023-08-20T22:48:40;9.05;;;4.15;;
79570;SDS011;69034;49.444;7.758;2023-08-20T22:52:43;8.25;;;3.92;;
79570;SDS011;69034;49.444;7.758;2023-08-20T22:56:44;5.72;;;3.30;;
79570;SDS011;69034;49.444;7.758;2023-08-20T23:00:45;7.68;;;4.18;;
79570;SDS011;69034;49.444;7.758;2023-08-20T23:04:46;7.85;;;3.97;;
79570;SDS011;69034;49.444;7.758;2023-08-20T23:08:47;7.00;;;4.10;;
79570;SDS011;69034;49.444;7.758;2023-08-20T23:12:49;8.30;;;3.80;;
79570;SDS011;69034;49.444;7.758;2023-08-20T23:16:49;6.85;;;3.50;;
79570;SDS011;69034;49.444;7.758;2023-08-20T23:20:54;8.43;;;4.07;;
79570;SDS011;69034;49.444;7.758;2023-08-20T23:25:01;10.75;;;4.40;;
79570;SDS011;69034;49.444;7.758;2023-08-20T23:29:02;7.03;;;4.07;;
79570;SDS011;69034;49.444;7.758;2023-08-20T23:33:03;5.85;;;3.60;;
79570;SDS011;69034;49.444;7.758;2023-08-20T23:37:04;6.72;;;3.78;;
79570;SDS011;69034;49.444;7.758;2023-08-20T23:41:05;6.72;;;3.97;;
79570;SDS011;69034;49.444;7.758;2023-08-20T23:45:07;9.48;;;3.30;;
79570;SDS011;69034;49.444;7.758;2023-08-20T23:49:09;7.63;;;3.80;;
79570;SDS011;69034;49.444;7.758;2023-08-20T23:53:10;7.95;;;3.83;;
79570;SDS011;69034;49.444;7.758;2023-08-20T23:57:10;5.65;;;3.70;;
